sensor_id;sensor_type;location;lat;lon;timestamp;temperature;humidity
74458;SHT31;62896;51.032;3.712;2023-06-04T00:00:18;15.7;63
74458;SHT31;62896;51.032;3.712;2023-06-04T00:03:38;15.7;63
74458;SHT31;62896;51.032;3.712;2023-06-04T00:06:58;15.6;64
74458;SHT31;62896;51.032;3.712;2023-06-04T00:10:18;15.6;64
74458;SHT31;62896;51.032;3.712;2023-06-04T00:13:38;15.6;64
74458;SHT31;62896;51.032;3.712;2023-06-04T00:16:58;15.5;64
74458;SHT31;62896;51.032;3.712;2023-06-04T00:20:18;15.5;64
74458;SHT31;62896;51.032;3.712;2023-06-04T00:23:38;15.5;64
74458;SHT31;62896;51.032;3.712;2023-06-04T00:26:58;15.4;64
74458;SHT31;62896;51.032;3.712;2023-06-04T00:30:18;15.4;64
74458;SHT31;62896;51.032;3.712;2023-06-04T00:33:38;15.4;64
74458;SHT31;62896;51.032;3.712;2023-06-04T00:36:58;15.3;64
74458;SHT31;62896;51.032;3.712;2023-06-04T00:40:18;15.3;64
74458;SHT31;62896;51.032;3.712;2023-06-04T00:43:38;15.3;64
74458;SHT31;62896;51.032;3.712;2023-06-04T00:46:58;15.1;65
74458;SHT31;62896;51.032;3.712;2023-06-04T00:50:18;15.1;65
74458;SHT31;62896;51.032;3.712;2023-06-04T00:53:38;15.1;65
74458;SHT31;62896;51.032;3.712;2023-06-04T00:56:58;15;65
74458;SHT31;62896;51.032;3.712;2023-06-04T01:00:18;15;65
74458;SHT31;62896;51.032;3.712;2023-06-04T01:03:38;15;65
74458;SHT31;62896;51.032;3.712;2023-06-04T01:06:58;15;65
74458;SHT31;62896;51.032;3.712;2023-06-04T01:10:18;15;65
74458;SHT31;62896;51.032;3.712;2023-06-04T01:13:38;15;65
74458;SHT31;62896;51.032;3.712;2023-06-04T01:16:59;14.9;65
74458;SHT31;62896;51.032;3.712;2023-06-04T01:20:20;14.9;65
74458;SHT31;62896;51.032;3.712;2023-06-04T01:23:40;14.9;65
74458;SHT31;62896;51.032;3.712;2023-06-04T01:26:58;14.8;65
74458;SHT31;62896;51.032;3.712;2023-06-04T01:30:18;14.8;65
74458;SHT31;62896;51.032;3.712;2023-06-04T01:33:38;14.8;65
74458;SHT31;62896;51.032;3.712;2023-06-04T01:36:58;14.6;66
74458;SHT31;62896;51.032;3.712;2023-06-04T01:40:18;14.6;66
74458;SHT31;62896;51.032;3.712;2023-06-04T01:43:38;14.6;66
74458;SHT31;62896;51.032;3.712;2023-06-04T01:46:58;14.5;66
74458;SHT31;62896;51.032;3.712;2023-06-04T01:50:18;14.5;66
74458;SHT31;62896;51.032;3.712;2023-06-04T01:53:38;14.5;66
74458;SHT31;62896;51.032;3.712;2023-06-04T01:56:58;14.4;67
74458;SHT31;62896;51.032;3.712;2023-06-04T02:00:18;14.4;67
74458;SHT31;62896;51.032;3.712;2023-06-04T02:03:38;14.4;67
74458;SHT31;62896;51.032;3.712;2023-06-04T02:06:58;14.3;67
74458;SHT31;62896;51.032;3.712;2023-06-04T02:10:18;14.3;67
74458;SHT31;62896;51.032;3.712;2023-06-04T02:13:38;14.3;67
74458;SHT31;62896;51.032;3.712;2023-06-04T02:16:58;14.2;67
74458;SHT31;62896;51.032;3.712;2023-06-04T02:20:18;14.2;67
74458;SHT31;62896;51.032;3.712;2023-06-04T02:23:38;14.2;67
74458;SHT31;62896;51.032;3.712;2023-06-04T02:26:58;14.1;67
74458;SHT31;62896;51.032;3.712;2023-06-04T02:30:18;14.1;67
74458;SHT31;62896;51.032;3.712;2023-06-04T02:33:38;14.1;67
74458;SHT31;62896;51.032;3.712;2023-06-04T02:36:58;14;67
74458;SHT31;62896;51.032;3.712;2023-06-04T02:40:18;14;67
74458;SHT31;62896;51.032;3.712;2023-06-04T02:43:38;14;67
74458;SHT31;62896;51.032;3.712;2023-06-04T02:46:58;13.9;67
74458;SHT31;62896;51.032;3.712;2023-06-04T02:50:18;13.9;67
74458;SHT31;62896;51.032;3.712;2023-06-04T02:53:38;13.9;67
74458;SHT31;62896;51.032;3.712;2023-06-04T02:56:58;13.8;67
74458;SHT31;62896;51.032;3.712;2023-06-04T03:00:18;13.8;67
74458;SHT31;62896;51.032;3.712;2023-06-04T03:03:38;13.8;67
74458;SHT31;62896;51.032;3.712;2023-06-04T03:06:58;13.7;68
74458;SHT31;62896;51.032;3.712;2023-06-04T03:10:18;13.7;68
74458;SHT31;62896;51.032;3.712;2023-06-04T03:13:38;13.7;68
74458;SHT31;62896;51.032;3.712;2023-06-04T03:16:59;13.6;68
74458;SHT31;62896;51.032;3.712;2023-06-04T03:20:18;13.6;68
74458;SHT31;62896;51.032;3.712;2023-06-04T03:23:38;13.6;68
74458;SHT31;62896;51.032;3.712;2023-06-04T03:26:58;13.6;68
74458;SHT31;62896;51.032;3.712;2023-06-04T03:30:18;13.6;68
74458;SHT31;62896;51.032;3.712;2023-06-04T03:33:38;13.6;68
74458;SHT31;62896;51.032;3.712;2023-06-04T03:36:58;13.5;68
74458;SHT31;62896;51.032;3.712;2023-06-04T03:40:18;13.5;68
74458;SHT31;62896;51.032;3.712;2023-06-04T03:43:38;13.5;68
74458;SHT31;62896;51.032;3.712;2023-06-04T03:46:58;13.4;68
74458;SHT31;62896;51.032;3.712;2023-06-04T03:50:18;13.4;68
74458;SHT31;62896;51.032;3.712;2023-06-04T03:53:38;13.4;68
74458;SHT31;62896;51.032;3.712;2023-06-04T03:56:58;13.4;68
74458;SHT31;62896;51.032;3.712;2023-06-04T04:00:18;13.4;68
74458;SHT31;62896;51.032;3.712;2023-06-04T04:03:38;13.4;68
74458;SHT31;62896;51.032;3.712;2023-06-04T04:06:58;13.3;69
74458;SHT31;62896;51.032;3.712;2023-06-04T04:10:18;13.3;69
74458;SHT31;62896;51.032;3.712;2023-06-04T04:13:38;13.3;69
74458;SHT31;62896;51.032;3.712;2023-06-04T04:16:58;13.3;69
74458;SHT31;62896;51.032;3.712;2023-06-04T04:20:18;13.3;69
74458;SHT31;62896;51.032;3.712;2023-06-04T04:23:38;13.3;69
74458;SHT31;62896;51.032;3.712;2023-06-04T04:26:58;13.3;69
74458;SHT31;62896;51.032;3.712;2023-06-04T04:30:18;13.3;69
74458;SHT31;62896;51.032;3.712;2023-06-04T04:33:38;13.3;69
74458;SHT31;62896;51.032;3.712;2023-06-04T04:36:58;13.4;69
74458;SHT31;62896;51.032;3.712;2023-06-04T04:40:18;13.4;69
74458;SHT31;62896;51.032;3.712;2023-06-04T04:43:38;13.4;69
74458;SHT31;62896;51.032;3.712;2023-06-04T04:46:58;13.4;68
74458;SHT31;62896;51.032;3.712;2023-06-04T04:50:18;13.4;68
74458;SHT31;62896;51.032;3.712;2023-06-04T04:53:38;13.4;68
74458;SHT31;62896;51.032;3.712;2023-06-04T04:56:58;13.5;68
74458;SHT31;62896;51.032;3.712;2023-06-04T05:00:18;13.5;68
74458;SHT31;62896;51.032;3.712;2023-06-04T05:03:38;13.5;68
74458;SHT31;62896;51.032;3.712;2023-06-04T05:06:58;13.7;68
74458;SHT31;62896;51.032;3.712;2023-06-04T05:10:18;13.7;68
74458;SHT31;62896;51.032;3.712;2023-06-04T05:13:38;13.7;68
74458;SHT31;62896;51.032;3.712;2023-06-04T05:16:58;13.9;67
74458;SHT31;62896;51.032;3.712;2023-06-04T05:20:18;13.9;67
74458;SHT31;62896;51.032;3.712;2023-06-04T05:23:38;13.9;67
74458;SHT31;62896;51.032;3.712;2023-06-04T05:26:58;14.1;66
74458;SHT31;62896;51.032;3.712;2023-06-04T05:30:18;14.1;66
74458;SHT31;62896;51.032;3.712;2023-06-04T05:33:38;14.1;66
74458;SHT31;62896;51.032;3.712;2023-06-04T05:36:58;14.3;66
74458;SHT31;62896;51.032;3.712;2023-06-04T05:40:18;14.3;66
74458;SHT31;62896;51.032;3.712;2023-06-04T05:43:38;14.3;66
74458;SHT31;62896;51.032;3.712;2023-06-04T05:46:58;14.5;65
74458;SHT31;62896;51.032;3.712;2023-06-04T05:50:18;14.5;65
74458;SHT31;62896;51.032;3.712;2023-06-04T05:53:38;14.5;65
74458;SHT31;62896;51.032;3.712;2023-06-04T05:56:58;14.7;64
74458;SHT31;62896;51.032;3.712;2023-06-04T06:00:18;14.7;64
74458;SHT31;62896;51.032;3.712;2023-06-04T06:03:38;14.7;64
74458;SHT31;62896;51.032;3.712;2023-06-04T06:06:58;14.9;63
74458;SHT31;62896;51.032;3.712;2023-06-04T06:10:18;14.9;63
74458;SHT31;62896;51.032;3.712;2023-06-04T06:13:38;14.9;63
74458;SHT31;62896;51.032;3.712;2023-06-04T06:16:58;15.3;61
74458;SHT31;62896;51.032;3.712;2023-06-04T06:20:18;15.3;61
74458;SHT31;62896;51.032;3.712;2023-06-04T06:23:38;15.3;61
74458;SHT31;62896;51.032;3.712;2023-06-04T06:26:58;15.6;60
74458;SHT31;62896;51.032;3.712;2023-06-04T06:30:18;15.6;60
74458;SHT31;62896;51.032;3.712;2023-06-04T06:33:38;15.6;60
74458;SHT31;62896;51.032;3.712;2023-06-04T06:36:58;15.8;59
74458;SHT31;62896;51.032;3.712;2023-06-04T06:40:19;15.8;59
74458;SHT31;62896;51.032;3.712;2023-06-04T06:43:38;15.8;59
74458;SHT31;62896;51.032;3.712;2023-06-04T06:46:58;16.1;58
74458;SHT31;62896;51.032;3.712;2023-06-04T06:50:18;16.1;58
74458;SHT31;62896;51.032;3.712;2023-06-04T06:53:38;16.1;58
74458;SHT31;62896;51.032;3.712;2023-06-04T06:56:58;16.3;57
74458;SHT31;62896;51.032;3.712;2023-06-04T07:00:18;16.3;57
74458;SHT31;62896;51.032;3.712;2023-06-04T07:03:38;16.3;57
74458;SHT31;62896;51.032;3.712;2023-06-04T07:06:58;16.6;56
74458;SHT31;62896;51.032;3.712;2023-06-04T07:10:18;16.6;56
74458;SHT31;62896;51.032;3.712;2023-06-04T07:13:38;16.6;56
74458;SHT31;62896;51.032;3.712;2023-06-04T07:16:58;16.9;54
74458;SHT31;62896;51.032;3.712;2023-06-04T07:20:18;16.9;54
74458;SHT31;62896;51.032;3.712;2023-06-04T07:23:38;16.9;54
74458;SHT31;62896;51.032;3.712;2023-06-04T07:26:58;17.5;52
74458;SHT31;62896;51.032;3.712;2023-06-04T07:30:18;17.5;52
74458;SHT31;62896;51.032;3.712;2023-06-04T07:33:38;17.5;52
74458;SHT31;62896;51.032;3.712;2023-06-04T07:36:58;17.9;51
74458;SHT31;62896;51.032;3.712;2023-06-04T07:40:18;17.9;51
74458;SHT31;62896;51.032;3.712;2023-06-04T07:43:38;17.9;51
74458;SHT31;62896;51.032;3.712;2023-06-04T07:46:58;18.1;50
74458;SHT31;62896;51.032;3.712;2023-06-04T07:50:18;18.1;50
74458;SHT31;62896;51.032;3.712;2023-06-04T07:53:38;18.1;50
74458;SHT31;62896;51.032;3.712;2023-06-04T07:56:58;18.7;48
74458;SHT31;62896;51.032;3.712;2023-06-04T08:00:18;18.7;48
74458;SHT31;62896;51.032;3.712;2023-06-04T08:03:38;18.7;48
74458;SHT31;62896;51.032;3.712;2023-06-04T08:06:58;18.7;47
74458;SHT31;62896;51.032;3.712;2023-06-04T08:10:18;18.7;47
74458;SHT31;62896;51.032;3.712;2023-06-04T08:13:39;18.7;47
74458;SHT31;62896;51.032;3.712;2023-06-04T08:16:58;19;45
74458;SHT31;62896;51.032;3.712;2023-06-04T08:20:18;19;45
74458;SHT31;62896;51.032;3.712;2023-06-04T08:23:38;19;45
74458;SHT31;62896;51.032;3.712;2023-06-04T08:26:58;19.2;44
74458;SHT31;62896;51.032;3.712;2023-06-04T08:30:18;19.2;44
74458;SHT31;62896;51.032;3.712;2023-06-04T08:33:38;19.2;44
74458;SHT31;62896;51.032;3.712;2023-06-04T08:36:58;19.5;42
74458;SHT31;62896;51.032;3.712;2023-06-04T08:40:18;19.5;42
74458;SHT31;62896;51.032;3.712;2023-06-04T08:43:38;19.5;42
74458;SHT31;62896;51.032;3.712;2023-06-04T08:47:01;19.9;40
74458;SHT31;62896;51.032;3.712;2023-06-04T08:50:19;19.9;40
74458;SHT31;62896;51.032;3.712;2023-06-04T08:53:38;19.9;40
74458;SHT31;62896;51.032;3.712;2023-06-04T08:56:58;20.1;39
74458;SHT31;62896;51.032;3.712;2023-06-04T09:00:19;20.1;39
74458;SHT31;62896;51.032;3.712;2023-06-04T09:03:38;20.1;39
74458;SHT31;62896;51.032;3.712;2023-06-04T09:06:59;20.3;38
74458;SHT31;62896;51.032;3.712;2023-06-04T09:10:18;20.3;38
74458;SHT31;62896;51.032;3.712;2023-06-04T09:13:38;20.3;38
74458;SHT31;62896;51.032;3.712;2023-06-04T09:16:58;20.6;37
74458;SHT31;62896;51.032;3.712;2023-06-04T09:20:19;20.6;37
74458;SHT31;62896;51.032;3.712;2023-06-04T09:23:43;20.6;37
74458;SHT31;62896;51.032;3.712;2023-06-04T09:26:58;20.9;37
74458;SHT31;62896;51.032;3.712;2023-06-04T09:30:18;20.9;37
74458;SHT31;62896;51.032;3.712;2023-06-04T09:33:42;20.9;37
74458;SHT31;62896;51.032;3.712;2023-06-04T09:36:58;21.2;36
74458;SHT31;62896;51.032;3.712;2023-06-04T09:40:18;21.2;36
74458;SHT31;62896;51.032;3.712;2023-06-04T09:43:38;21.2;36
74458;SHT31;62896;51.032;3.712;2023-06-04T09:46:58;21.2;35
74458;SHT31;62896;51.032;3.712;2023-06-04T09:50:24;21.2;35
74458;SHT31;62896;51.032;3.712;2023-06-04T09:53:38;21.2;35
74458;SHT31;62896;51.032;3.712;2023-06-04T09:56:58;21.6;34
74458;SHT31;62896;51.032;3.712;2023-06-04T10:00:19;21.6;34
74458;SHT31;62896;51.032;3.712;2023-06-04T10:03:38;21.6;34
74458;SHT31;62896;51.032;3.712;2023-06-04T10:06:58;21.5;35
74458;SHT31;62896;51.032;3.712;2023-06-04T10:10:19;21.5;35
74458;SHT31;62896;51.032;3.712;2023-06-04T10:13:40;21.5;35
74458;SHT31;62896;51.032;3.712;2023-06-04T10:16:58;21.8;34
74458;SHT31;62896;51.032;3.712;2023-06-04T10:20:18;21.8;34
74458;SHT31;62896;51.032;3.712;2023-06-04T10:23:39;21.8;34
74458;SHT31;62896;51.032;3.712;2023-06-04T10:26:58;22.1;34
74458;SHT31;62896;51.032;3.712;2023-06-04T10:30:18;22.1;34
74458;SHT31;62896;51.032;3.712;2023-06-04T10:33:38;22.1;34
74458;SHT31;62896;51.032;3.712;2023-06-04T10:36:58;22.3;33
74458;SHT31;62896;51.032;3.712;2023-06-04T10:40:18;22.3;33
74458;SHT31;62896;51.032;3.712;2023-06-04T10:43:38;22.3;33
74458;SHT31;62896;51.032;3.712;2023-06-04T10:46:58;22.2;33
74458;SHT31;62896;51.032;3.712;2023-06-04T10:50:18;22.2;33
74458;SHT31;62896;51.032;3.712;2023-06-04T10:53:38;22.2;33
74458;SHT31;62896;51.032;3.712;2023-06-04T10:56:58;22.6;32
74458;SHT31;62896;51.032;3.712;2023-06-04T11:00:18;22.6;32
74458;SHT31;62896;51.032;3.712;2023-06-04T11:03:38;22.6;32
74458;SHT31;62896;51.032;3.712;2023-06-04T11:07:00;22.9;31
74458;SHT31;62896;51.032;3.712;2023-06-04T11:10:18;22.9;31
74458;SHT31;62896;51.032;3.712;2023-06-04T11:13:38;22.9;31
74458;SHT31;62896;51.032;3.712;2023-06-04T11:17:08;23;31
74458;SHT31;62896;51.032;3.712;2023-06-04T11:20:19;23;31
74458;SHT31;62896;51.032;3.712;2023-06-04T11:23:38;23;31
74458;SHT31;62896;51.032;3.712;2023-06-04T11:26:58;23.2;30
74458;SHT31;62896;51.032;3.712;2023-06-04T11:30:18;23.2;30
74458;SHT31;62896;51.032;3.712;2023-06-04T11:33:42;23.2;30
74458;SHT31;62896;51.032;3.712;2023-06-04T11:37:07;23.5;30
74458;SHT31;62896;51.032;3.712;2023-06-04T11:40:19;23.5;30
74458;SHT31;62896;51.032;3.712;2023-06-04T11:43:38;23.5;30
74458;SHT31;62896;51.032;3.712;2023-06-04T11:46:58;23.7;29
74458;SHT31;62896;51.032;3.712;2023-06-04T11:50:18;23.7;29
74458;SHT31;62896;51.032;3.712;2023-06-04T11:53:38;23.7;29
74458;SHT31;62896;51.032;3.712;2023-06-04T11:56:58;24.1;29
74458;SHT31;62896;51.032;3.712;2023-06-04T12:00:18;24.1;29
74458;SHT31;62896;51.032;3.712;2023-06-04T12:03:39;24.1;29
74458;SHT31;62896;51.032;3.712;2023-06-04T12:06:59;24.2;29
74458;SHT31;62896;51.032;3.712;2023-06-04T12:10:19;24.2;29
74458;SHT31;62896;51.032;3.712;2023-06-04T12:13:38;24.2;29
74458;SHT31;62896;51.032;3.712;2023-06-04T12:16:59;24.5;29
74458;SHT31;62896;51.032;3.712;2023-06-04T12:20:19;24.5;29
74458;SHT31;62896;51.032;3.712;2023-06-04T12:23:38;24.5;29
74458;SHT31;62896;51.032;3.712;2023-06-04T12:27:02;24.7;28
74458;SHT31;62896;51.032;3.712;2023-06-04T12:30:18;24.7;28
74458;SHT31;62896;51.032;3.712;2023-06-04T12:33:38;24.7;28
74458;SHT31;62896;51.032;3.712;2023-06-04T12:36:58;24.8;29
74458;SHT31;62896;51.032;3.712;2023-06-04T12:40:18;24.8;29
74458;SHT31;62896;51.032;3.712;2023-06-04T12:43:38;24.8;29
74458;SHT31;62896;51.032;3.712;2023-06-04T12:46:58;25.6;28
74458;SHT31;62896;51.032;3.712;2023-06-04T12:50:18;25.6;28
74458;SHT31;62896;51.032;3.712;2023-06-04T12:53:38;25.6;28
74458;SHT31;62896;51.032;3.712;2023-06-04T12:56:58;25.7;27
74458;SHT31;62896;51.032;3.712;2023-06-04T13:00:18;25.7;27
74458;SHT31;62896;51.032;3.712;2023-06-04T13:03:39;25.7;27
74458;SHT31;62896;51.032;3.712;2023-06-04T13:06:58;25.8;28
74458;SHT31;62896;51.032;3.712;2023-06-04T13:10:18;25.8;28
74458;SHT31;62896;51.032;3.712;2023-06-04T13:13:38;25.8;28
74458;SHT31;62896;51.032;3.712;2023-06-04T13:16:58;26.2;28
74458;SHT31;62896;51.032;3.712;2023-06-04T13:20:18;26.2;28
74458;SHT31;62896;51.032;3.712;2023-06-04T13:23:38;26.2;28
74458;SHT31;62896;51.032;3.712;2023-06-04T13:26:58;26.2;28
74458;SHT31;62896;51.032;3.712;2023-06-04T13:30:18;26.2;28
74458;SHT31;62896;51.032;3.712;2023-06-04T13:33:38;26.2;28
74458;SHT31;62896;51.032;3.712;2023-06-04T13:36:58;26.5;28
74458;SHT31;62896;51.032;3.712;2023-06-04T13:40:19;26.5;28
74458;SHT31;62896;51.032;3.712;2023-06-04T13:43:38;26.5;28
74458;SHT31;62896;51.032;3.712;2023-06-04T13:46:59;26.4;28
74458;SHT31;62896;51.032;3.712;2023-06-04T13:50:18;26.4;28
74458;SHT31;62896;51.032;3.712;2023-06-04T13:53:38;26.4;28
74458;SHT31;62896;51.032;3.712;2023-06-04T13:57:01;26.6;27
74458;SHT31;62896;51.032;3.712;2023-06-04T14:00:18;26.6;27
74458;SHT31;62896;51.032;3.712;2023-06-04T14:03:38;26.6;27
74458;SHT31;62896;51.032;3.712;2023-06-04T14:06:58;26.8;28
74458;SHT31;62896;51.032;3.712;2023-06-04T14:10:18;26.8;28
74458;SHT31;62896;51.032;3.712;2023-06-04T14:13:38;26.8;28
74458;SHT31;62896;51.032;3.712;2023-06-04T14:16:58;27.1;28
74458;SHT31;62896;51.032;3.712;2023-06-04T14:20:18;27.1;28
74458;SHT31;62896;51.032;3.712;2023-06-04T14:23:38;27.1;28
74458;SHT31;62896;51.032;3.712;2023-06-04T14:26:58;27.4;28
74458;SHT31;62896;51.032;3.712;2023-06-04T14:30:18;27.4;28
74458;SHT31;62896;51.032;3.712;2023-06-04T14:33:38;27.4;28
74458;SHT31;62896;51.032;3.712;2023-06-04T14:36:59;27.7;28
74458;SHT31;62896;51.032;3.712;2023-06-04T14:40:19;27.7;28
74458;SHT31;62896;51.032;3.712;2023-06-04T14:43:38;27.7;28
74458;SHT31;62896;51.032;3.712;2023-06-04T14:46:58;27.4;28
74458;SHT31;62896;51.032;3.712;2023-06-04T14:50:18;27.4;28
74458;SHT31;62896;51.032;3.712;2023-06-04T14:53:39;27.4;28
74458;SHT31;62896;51.032;3.712;2023-06-04T14:56:58;27.8;28
74458;SHT31;62896;51.032;3.712;2023-06-04T15:00:18;27.8;28
74458;SHT31;62896;51.032;3.712;2023-06-04T15:03:38;27.8;28
74458;SHT31;62896;51.032;3.712;2023-06-04T15:06:58;27.3;29
74458;SHT31;62896;51.032;3.712;2023-06-04T15:10:19;27.3;29
74458;SHT31;62896;51.032;3.712;2023-06-04T15:13:38;27.3;29
74458;SHT31;62896;51.032;3.712;2023-06-04T15:16:58;27.8;28
74458;SHT31;62896;51.032;3.712;2023-06-04T15:20:18;27.8;28
74458;SHT31;62896;51.032;3.712;2023-06-04T15:23:39;27.8;28
74458;SHT31;62896;51.032;3.712;2023-06-04T15:26:59;27.5;30
74458;SHT31;62896;51.032;3.712;2023-06-04T15:30:19;27.5;30
74458;SHT31;62896;51.032;3.712;2023-06-04T15:33:38;27.5;30
74458;SHT31;62896;51.032;3.712;2023-06-04T15:36:59;27;36
74458;SHT31;62896;51.032;3.712;2023-06-04T15:40:19;27;36
74458;SHT31;62896;51.032;3.712;2023-06-04T15:43:39;27;36
74458;SHT31;62896;51.032;3.712;2023-06-04T15:46:59;26.6;38
74458;SHT31;62896;51.032;3.712;2023-06-04T15:50:19;26.6;38
74458;SHT31;62896;51.032;3.712;2023-06-04T15:53:39;26.6;38
74458;SHT31;62896;51.032;3.712;2023-06-04T15:56:59;26.4;40
74458;SHT31;62896;51.032;3.712;2023-06-04T16:00:19;26.4;40
74458;SHT31;62896;51.032;3.712;2023-06-04T16:03:39;26.4;40
74458;SHT31;62896;51.032;3.712;2023-06-04T16:06:59;25.8;42
74458;SHT31;62896;51.032;3.712;2023-06-04T16:10:19;25.8;42
74458;SHT31;62896;51.032;3.712;2023-06-04T16:13:39;25.8;42
74458;SHT31;62896;51.032;3.712;2023-06-04T16:16:59;24;46
74458;SHT31;62896;51.032;3.712;2023-06-04T16:20:19;24;46
74458;SHT31;62896;51.032;3.712;2023-06-04T16:23:39;24;46
74458;SHT31;62896;51.032;3.712;2023-06-04T16:26:59;23.5;47
74458;SHT31;62896;51.032;3.712;2023-06-04T16:30:19;23.5;47
74458;SHT31;62896;51.032;3.712;2023-06-04T16:33:39;23.5;47
74458;SHT31;62896;51.032;3.712;2023-06-04T16:36:59;23.3;47
74458;SHT31;62896;51.032;3.712;2023-06-04T16:40:19;23.3;47
74458;SHT31;62896;51.032;3.712;2023-06-04T16:43:39;23.3;47
74458;SHT31;62896;51.032;3.712;2023-06-04T16:46:59;23.1;48
74458;SHT31;62896;51.032;3.712;2023-06-04T16:50:19;23.1;48
74458;SHT31;62896;51.032;3.712;2023-06-04T16:53:39;23.1;48
74458;SHT31;62896;51.032;3.712;2023-06-04T16:56:59;22.9;48
74458;SHT31;62896;51.032;3.712;2023-06-04T17:00:19;22.9;48
74458;SHT31;62896;51.032;3.712;2023-06-04T17:03:39;22.9;48
74458;SHT31;62896;51.032;3.712;2023-06-04T17:06:59;22.4;49
74458;SHT31;62896;51.032;3.712;2023-06-04T17:10:19;22.4;49
74458;SHT31;62896;51.032;3.712;2023-06-04T17:13:39;22.4;49
74458;SHT31;62896;51.032;3.712;2023-06-04T17:16:59;22.2;50
74458;SHT31;62896;51.032;3.712;2023-06-04T17:20:19;22.2;50
74458;SHT31;62896;51.032;3.712;2023-06-04T17:23:39;22.2;50
74458;SHT31;62896;51.032;3.712;2023-06-04T17:26:59;21.8;50
74458;SHT31;62896;51.032;3.712;2023-06-04T17:30:19;21.8;50
74458;SHT31;62896;51.032;3.712;2023-06-04T17:33:39;21.8;50
74458;SHT31;62896;51.032;3.712;2023-06-04T17:36:59;21.6;50
74458;SHT31;62896;51.032;3.712;2023-06-04T17:40:19;21.6;50
74458;SHT31;62896;51.032;3.712;2023-06-04T17:43:39;21.6;50
74458;SHT31;62896;51.032;3.712;2023-06-04T17:46:59;21.4;51
74458;SHT31;62896;51.032;3.712;2023-06-04T17:50:19;21.4;51
74458;SHT31;62896;51.032;3.712;2023-06-04T17:53:39;21.4;51
74458;SHT31;62896;51.032;3.712;2023-06-04T17:56:59;21.2;51
74458;SHT31;62896;51.032;3.712;2023-06-04T18:00:19;21.2;51
74458;SHT31;62896;51.032;3.712;2023-06-04T18:03:39;21.2;51
74458;SHT31;62896;51.032;3.712;2023-06-04T18:06:59;21.1;52
74458;SHT31;62896;51.032;3.712;2023-06-04T18:10:19;21.1;52
74458;SHT31;62896;51.032;3.712;2023-06-04T18:13:39;21.1;52
74458;SHT31;62896;51.032;3.712;2023-06-04T18:16:59;20.8;52
74458;SHT31;62896;51.032;3.712;2023-06-04T18:20:20;20.8;52
74458;SHT31;62896;51.032;3.712;2023-06-04T18:23:39;20.8;52
74458;SHT31;62896;51.032;3.712;2023-06-04T18:26:59;20.5;53
74458;SHT31;62896;51.032;3.712;2023-06-04T18:30:19;20.5;53
74458;SHT31;62896;51.032;3.712;2023-06-04T18:33:48;20.5;53
74458;SHT31;62896;51.032;3.712;2023-06-04T18:36:59;20.3;54
74458;SHT31;62896;51.032;3.712;2023-06-04T18:40:19;20.3;54
74458;SHT31;62896;51.032;3.712;2023-06-04T18:43:39;20.3;54
74458;SHT31;62896;51.032;3.712;2023-06-04T18:46:59;20.1;55
74458;SHT31;62896;51.032;3.712;2023-06-04T18:50:19;20.1;55
74458;SHT31;62896;51.032;3.712;2023-06-04T18:53:39;20.1;55
74458;SHT31;62896;51.032;3.712;2023-06-04T18:56:59;19.8;56
74458;SHT31;62896;51.032;3.712;2023-06-04T19:00:19;19.8;56
74458;SHT31;62896;51.032;3.712;2023-06-04T19:03:39;19.8;56
74458;SHT31;62896;51.032;3.712;2023-06-04T19:06:59;19.5;58
74458;SHT31;62896;51.032;3.712;2023-06-04T19:10:19;19.5;58
74458;SHT31;62896;51.032;3.712;2023-06-04T19:13:39;19.5;58
74458;SHT31;62896;51.032;3.712;2023-06-04T19:16:59;19.3;59
74458;SHT31;62896;51.032;3.712;2023-06-04T19:20:19;19.3;59
74458;SHT31;62896;51.032;3.712;2023-06-04T19:23:39;19.3;59
74458;SHT31;62896;51.032;3.712;2023-06-04T19:26:59;19.1;60
74458;SHT31;62896;51.032;3.712;2023-06-04T19:30:19;19.1;60
74458;SHT31;62896;51.032;3.712;2023-06-04T19:33:39;19.1;60
74458;SHT31;62896;51.032;3.712;2023-06-04T19:36:59;18.8;62
74458;SHT31;62896;51.032;3.712;2023-06-04T19:40:19;18.8;62
74458;SHT31;62896;51.032;3.712;2023-06-04T19:43:39;18.8;62
74458;SHT31;62896;51.032;3.712;2023-06-04T19:46:59;18.6;63
74458;SHT31;62896;51.032;3.712;2023-06-04T19:50:19;18.6;63
74458;SHT31;62896;51.032;3.712;2023-06-04T19:53:39;18.6;63
74458;SHT31;62896;51.032;3.712;2023-06-04T19:56:59;18.3;64
74458;SHT31;62896;51.032;3.712;2023-06-04T20:00:19;18.3;64
74458;SHT31;62896;51.032;3.712;2023-06-04T20:03:39;18.3;64
74458;SHT31;62896;51.032;3.712;2023-06-04T20:06:59;18;66
74458;SHT31;62896;51.032;3.712;2023-06-04T20:10:19;18;66
74458;SHT31;62896;51.032;3.712;2023-06-04T20:13:39;18;66
74458;SHT31;62896;51.032;3.712;2023-06-04T20:16:59;17.8;67
74458;SHT31;62896;51.032;3.712;2023-06-04T20:20:19;17.8;67
74458;SHT31;62896;51.032;3.712;2023-06-04T20:23:39;17.8;67
74458;SHT31;62896;51.032;3.712;2023-06-04T20:26:59;17.7;68
74458;SHT31;62896;51.032;3.712;2023-06-04T20:30:19;17.7;68
74458;SHT31;62896;51.032;3.712;2023-06-04T20:33:39;17.7;68
74458;SHT31;62896;51.032;3.712;2023-06-04T20:36:59;17.5;69
74458;SHT31;62896;51.032;3.712;2023-06-04T20:40:19;17.5;69
74458;SHT31;62896;51.032;3.712;2023-06-04T20:43:47;17.5;69
74458;SHT31;62896;51.032;3.712;2023-06-04T20:46:59;17.5;70
74458;SHT31;62896;51.032;3.712;2023-06-04T20:50:19;17.5;70
74458;SHT31;62896;51.032;3.712;2023-06-04T20:53:39;17.5;70
74458;SHT31;62896;51.032;3.712;2023-06-04T20:56:59;17.4;70
74458;SHT31;62896;51.032;3.712;2023-06-04T21:00:19;17.4;70
74458;SHT31;62896;51.032;3.712;2023-06-04T21:03:39;17.4;70
74458;SHT31;62896;51.032;3.712;2023-06-04T21:06:59;17.3;71
74458;SHT31;62896;51.032;3.712;2023-06-04T21:10:19;17.3;71
74458;SHT31;62896;51.032;3.712;2023-06-04T21:13:39;17.3;71
74458;SHT31;62896;51.032;3.712;2023-06-04T21:16:59;17.1;72
74458;SHT31;62896;51.032;3.712;2023-06-04T21:20:19;17.1;72
74458;SHT31;62896;51.032;3.712;2023-06-04T21:23:39;17.1;72
74458;SHT31;62896;51.032;3.712;2023-06-04T21:26:59;17;72
74458;SHT31;62896;51.032;3.712;2023-06-04T21:30:19;17;72
74458;SHT31;62896;51.032;3.712;2023-06-04T21:33:39;17;72
74458;SHT31;62896;51.032;3.712;2023-06-04T21:36:59;17.2;70
74458;SHT31;62896;51.032;3.712;2023-06-04T21:40:19;17.2;70
74458;SHT31;62896;51.032;3.712;2023-06-04T21:43:39;17.2;70
74458;SHT31;62896;51.032;3.712;2023-06-04T21:46:59;17.1;70
74458;SHT31;62896;51.032;3.712;2023-06-04T21:50:19;17.1;70
74458;SHT31;62896;51.032;3.712;2023-06-04T21:53:39;17.1;70
74458;SHT31;62896;51.032;3.712;2023-06-04T21:56:59;16.9;70
74458;SHT31;62896;51.032;3.712;2023-06-04T22:00:19;16.9;70
74458;SHT31;62896;51.032;3.712;2023-06-04T22:03:39;16.9;70
74458;SHT31;62896;51.032;3.712;2023-06-04T22:06:59;16.6;71
74458;SHT31;62896;51.032;3.712;2023-06-04T22:10:19;16.6;71
74458;SHT31;62896;51.032;3.712;2023-06-04T22:13:39;16.6;71
74458;SHT31;62896;51.032;3.712;2023-06-04T22:16:59;16.4;72
74458;SHT31;62896;51.032;3.712;2023-06-04T22:20:19;16.4;72
74458;SHT31;62896;51.032;3.712;2023-06-04T22:23:39;16.4;72
74458;SHT31;62896;51.032;3.712;2023-06-04T22:26:59;16.2;73
74458;SHT31;62896;51.032;3.712;2023-06-04T22:30:19;16.2;73